sensor_id;sensor_type;location;lat;lon;timestamp;temperature;humidity
7028;DHT22;3555;53.248;10.336;2023-03-04T00:01:30;5.20;99.90
7028;DHT22;3555;53.248;10.336;2023-03-04T00:03:57;5.10;99.90
7028;DHT22;3555;53.248;10.336;2023-03-04T00:06:24;5.00;1.00
7028;DHT22;3555;53.248;10.336;2023-03-04T00:08:51;5.00;1.00
7028;DHT22;3555;53.248;10.336;2023-03-04T00:11:18;5.10;1.00
7028;DHT22;3555;53.248;10.336;2023-03-04T00:13:44;5.10;1.00
7028;DHT22;3555;53.248;10.336;2023-03-04T00:16:11;5.00;1.00
7028;DHT22;3555;53.248;10.336;2023-03-04T00:18:40;5.10;1.00
7028;DHT22;3555;53.248;10.336;2023-03-04T00:21:07;5.00;1.00
7028;DHT22;3555;53.248;10.336;2023-03-04T00:23:34;5.10;1.00
7028;DHT22;3555;53.248;10.336;2023-03-04T00:26:01;5.10;1.00
7028;DHT22;3555;53.248;10.336;2023-03-04T00:28:27;5.20;1.00
7028;DHT22;3555;53.248;10.336;2023-03-04T00:30:54;5.20;1.00
7028;DHT22;3555;53.248;10.336;2023-03-04T00:33:21;5.20;1.00
7028;DHT22;3555;53.248;10.336;2023-03-04T00:35:49;5.10;1.00
7028;DHT22;3555;53.248;10.336;2023-03-04T00:38:16;5.20;1.00
7028;DHT22;3555;53.248;10.336;2023-03-04T00:40:43;5.20;1.00
7028;DHT22;3555;53.248;10.336;2023-03-04T00:43:10;5.30;1.00
7028;DHT22;3555;53.248;10.336;2023-03-04T00:45:37;5.30;1.00
7028;DHT22;3555;53.248;10.336;2023-03-04T00:48:04;5.80;1.00
7028;DHT22;3555;53.248;10.336;2023-03-04T00:50:31;5.20;1.00
7028;DHT22;3555;53.248;10.336;2023-03-04T00:52:59;5.20;1.00
7028;DHT22;3555;53.248;10.336;2023-03-04T00:55:26;5.20;1.00
7028;DHT22;3555;53.248;10.336;2023-03-04T00:57:53;5.60;1.00
7028;DHT22;3555;53.248;10.336;2023-03-04T01:00:20;5.10;1.00
7028;DHT22;3555;53.248;10.336;2023-03-04T01:02:47;5.20;1.00
7028;DHT22;3555;53.248;10.336;2023-03-04T01:05:14;5.10;1.00
7028;DHT22;3555;53.248;10.336;2023-03-04T01:07:41;5.20;1.00
7028;DHT22;3555;53.248;10.336;2023-03-04T01:10:12;5.10;1.00
7028;DHT22;3555;53.248;10.336;2023-03-04T01:12:39;5.20;1.00
7028;DHT22;3555;53.248;10.336;2023-03-04T01:15:07;5.50;1.00
7028;DHT22;3555;53.248;10.336;2023-03-04T01:17:34;5.20;1.00
7028;DHT22;3555;53.248;10.336;2023-03-04T01:20:02;5.10;1.00
7028;DHT22;3555;53.248;10.336;2023-03-04T01:22:29;5.20;1.00
7028;DHT22;3555;53.248;10.336;2023-03-04T01:24:55;5.20;1.00
7028;DHT22;3555;53.248;10.336;2023-03-04T01:27:24;5.30;1.00
7028;DHT22;3555;53.248;10.336;2023-03-04T01:29:51;5.20;1.00
7028;DHT22;3555;53.248;10.336;2023-03-04T01:32:18;5.30;1.00
7028;DHT22;3555;53.248;10.336;2023-03-04T01:34:44;5.20;1.00
7028;DHT22;3555;53.248;10.336;2023-03-04T01:37:11;5.20;1.00
7028;DHT22;3555;53.248;10.336;2023-03-04T01:39:39;5.30;1.00
7028;DHT22;3555;53.248;10.336;2023-03-04T01:42:12;5.30;1.00
7028;DHT22;3555;53.248;10.336;2023-03-04T01:44:44;5.30;1.00
7028;DHT22;3555;53.248;10.336;2023-03-04T01:47:11;5.20;16.10
7028;DHT22;3555;53.248;10.336;2023-03-04T01:49:39;5.20;72.10
7028;DHT22;3555;53.248;10.336;2023-03-04T01:52:09;5.20;1.00
7028;DHT22;3555;53.248;10.336;2023-03-04T01:54:38;5.20;1.00
7028;DHT22;3555;53.248;10.336;2023-03-04T01:57:09;5.30;1.00
7028;DHT22;3555;53.248;10.336;2023-03-04T01:59:41;5.40;1.00
7028;DHT22;3555;53.248;10.336;2023-03-04T02:02:09;5.30;1.00
7028;DHT22;3555;53.248;10.336;2023-03-04T02:04:36;5.20;1.00
7028;DHT22;3555;53.248;10.336;2023-03-04T02:07:03;5.20;1.00
7028;DHT22;3555;53.248;10.336;2023-03-04T02:09:32;5.20;1.00
7028;DHT22;3555;53.248;10.336;2023-03-04T02:12:00;5.20;1.00
7028;DHT22;3555;53.248;10.336;2023-03-04T02:14:27;5.20;1.00
7028;DHT22;3555;53.248;10.336;2023-03-04T02:16:55;5.20;1.00
7028;DHT22;3555;53.248;10.336;2023-03-04T02:19:30;5.10;1.00
7028;DHT22;3555;53.248;10.336;2023-03-04T02:22:03;5.20;1.00
7028;DHT22;3555;53.248;10.336;2023-03-04T02:24:33;5.30;1.00
7028;DHT22;3555;53.248;10.336;2023-03-04T02:27:02;5.30;1.00
7028;DHT22;3555;53.248;10.336;2023-03-04T02:29:29;5.20;1.00
7028;DHT22;3555;53.248;10.336;2023-03-04T02:31:56;5.20;1.00
7028;DHT22;3555;53.248;10.336;2023-03-04T02:34:26;5.20;1.00
7028;DHT22;3555;53.248;10.336;2023-03-04T02:36:55;5.20;1.00
7028;DHT22;3555;53.248;10.336;2023-03-04T02:39:28;5.20;1.00
7028;DHT22;3555;53.248;10.336;2023-03-04T02:41:55;5.20;1.00
7028;DHT22;3555;53.248;10.336;2023-03-04T02:44:25;5.30;1.00
7028;DHT22;3555;53.248;10.336;2023-03-04T02:46:52;5.20;1.00
7028;DHT22;3555;53.248;10.336;2023-03-04T02:49:21;5.20;1.00
7028;DHT22;3555;53.248;10.336;2023-03-04T02:51:50;5.20;1.00
7028;DHT22;3555;53.248;10.336;2023-03-04T02:54:20;5.20;1.00
7028;DHT22;3555;53.248;10.336;2023-03-04T02:56:48;5.30;1.00
7028;DHT22;3555;53.248;10.336;2023-03-04T02:59:16;5.20;1.00
7028;DHT22;3555;53.248;10.336;2023-03-04T03:01:44;5.20;1.00
7028;DHT22;3555;53.248;10.336;2023-03-04T03:04:12;5.30;1.00
7028;DHT22;3555;53.248;10.336;2023-03-04T03:06:39;5.30;1.00
7028;DHT22;3555;53.248;10.336;2023-03-04T03:09:06;5.40;1.00
7028;DHT22;3555;53.248;10.336;2023-03-04T03:11:33;5.30;1.00
7028;DHT22;3555;53.248;10.336;2023-03-04T03:14:00;5.30;1.00
7028;DHT22;3555;53.248;10.336;2023-03-04T03:16:27;5.40;99.90
7028;DHT22;3555;53.248;10.336;2023-03-04T03:18:56;5.40;1.00
7028;DHT22;3555;53.248;10.336;2023-03-04T03:21:23;5.40;1.00
7028;DHT22;3555;53.248;10.336;2023-03-04T03:23:50;5.40;1.00
7028;DHT22;3555;53.248;10.336;2023-03-04T03:26:18;5.30;1.00
7028;DHT22;3555;53.248;10.336;2023-03-04T03:28:46;5.30;1.00
7028;DHT22;3555;53.248;10.336;2023-03-04T03:31:13;5.40;1.00
7028;DHT22;3555;53.248;10.336;2023-03-04T03:33:39;5.40;1.00
7028;DHT22;3555;53.248;10.336;2023-03-04T03:36:08;5.40;1.00
7028;DHT22;3555;53.248;10.336;2023-03-04T03:38:35;5.40;1.00
7028;DHT22;3555;53.248;10.336;2023-03-04T03:41:02;5.30;1.00
7028;DHT22;3555;53.248;10.336;2023-03-04T03:43:29;5.30;1.00
7028;DHT22;3555;53.248;10.336;2023-03-04T03:45:56;5.50;1.00
7028;DHT22;3555;53.248;10.336;2023-03-04T03:48:23;5.40;1.00
7028;DHT22;3555;53.248;10.336;2023-03-04T03:50:49;5.30;1.00
7028;DHT22;3555;53.248;10.336;2023-03-04T03:53:18;5.30;1.00
7028;DHT22;3555;53.248;10.336;2023-03-04T03:55:44;5.30;18.20
7028;DHT22;3555;53.248;10.336;2023-03-04T03:58:11;5.30;36.10
7028;DHT22;3555;53.248;10.336;2023-03-04T04:00:38;5.30;99.90
7028;DHT22;3555;53.248;10.336;2023-03-04T04:03:05;5.30;99.90
7028;DHT22;3555;53.248;10.336;2023-03-04T04:05:32;5.30;99.90
7028;DHT22;3555;53.248;10.336;2023-03-04T04:07:59;5.30;99.90
7028;DHT22;3555;53.248;10.336;2023-03-04T04:10:27;5.20;99.90
7028;DHT22;3555;53.248;10.336;2023-03-04T04:12:54;5.20;99.90
7028;DHT22;3555;53.248;10.336;2023-03-04T04:15:21;5.20;99.90
7028;DHT22;3555;53.248;10.336;2023-03-04T04:17:48;5.10;99.90
7028;DHT22;3555;53.248;10.336;2023-03-04T04:20:15;5.20;99.90
7028;DHT22;3555;53.248;10.336;2023-03-04T04:22:42;5.10;99.90
7028;DHT22;3555;53.248;10.336;2023-03-04T04:25:09;5.10;99.90
7028;DHT22;3555;53.248;10.336;2023-03-04T04:27:37;5.20;99.90
7028;DHT22;3555;53.248;10.336;2023-03-04T04:30:05;5.20;99.90
7028;DHT22;3555;53.248;10.336;2023-03-04T04:32:32;5.20;99.90
7028;DHT22;3555;53.248;10.336;2023-03-04T04:34:59;5.20;99.90
7028;DHT22;3555;53.248;10.336;2023-03-04T04:37:26;5.20;99.90
7028;DHT22;3555;53.248;10.336;2023-03-04T04:39:52;5.20;99.90
7028;DHT22;3555;53.248;10.336;2023-03-04T04:42:20;5.20;99.90
7028;DHT22;3555;53.248;10.336;2023-03-04T04:44:48;5.10;99.90
7028;DHT22;3555;53.248;10.336;2023-03-04T04:47:15;5.10;99.90
7028;DHT22;3555;53.248;10.336;2023-03-04T04:49:42;5.20;99.90
7028;DHT22;3555;53.248;10.336;2023-03-04T04:52:09;5.20;99.90
7028;DHT22;3555;53.248;10.336;2023-03-04T04:54:36;5.20;99.90
7028;DHT22;3555;53.248;10.336;2023-03-04T04:57:03;5.20;99.90
7028;DHT22;3555;53.248;10.336;2023-03-04T04:59:30;5.30;99.90
7028;DHT22;3555;53.248;10.336;2023-03-04T05:01:58;5.30;99.90
7028;DHT22;3555;53.248;10.336;2023-03-04T05:04:25;5.20;99.90
7028;DHT22;3555;53.248;10.336;2023-03-04T05:06:52;5.20;99.90
7028;DHT22;3555;53.248;10.336;2023-03-04T05:09:19;5.20;99.90
7028;DHT22;3555;53.248;10.336;2023-03-04T05:11:47;5.20;99.90
7028;DHT22;3555;53.248;10.336;2023-03-04T05:14:14;5.10;99.90
7028;DHT22;3555;53.248;10.336;2023-03-04T05:16:41;5.30;99.90
7028;DHT22;3555;53.248;10.336;2023-03-04T05:19:09;5.30;99.90
7028;DHT22;3555;53.248;10.336;2023-03-04T05:21:36;5.30;99.90
7028;DHT22;3555;53.248;10.336;2023-03-04T05:24:03;5.20;99.90
7028;DHT22;3555;53.248;10.336;2023-03-04T05:26:30;5.20;99.90
7028;DHT22;3555;53.248;10.336;2023-03-04T05:28:57;5.20;99.90
7028;DHT22;3555;53.248;10.336;2023-03-04T05:31:24;5.10;99.90
7028;DHT22;3555;53.248;10.336;2023-03-04T05:33:50;5.30;99.90
7028;DHT22;3555;53.248;10.336;2023-03-04T05:36:19;5.20;99.90
7028;DHT22;3555;53.248;10.336;2023-03-04T05:38:46;5.40;99.90
7028;DHT22;3555;53.248;10.336;2023-03-04T05:41:13;5.20;99.90
7028;DHT22;3555;53.248;10.336;2023-03-04T05:43:40;5.30;99.90
7028;DHT22;3555;53.248;10.336;2023-03-04T05:46:08;5.20;99.90
7028;DHT22;3555;53.248;10.336;2023-03-04T05:48:38;5.30;99.90
7028;DHT22;3555;53.248;10.336;2023-03-04T05:51:05;5.30;99.90
7028;DHT22;3555;53.248;10.336;2023-03-04T05:53:34;5.20;99.90
7028;DHT22;3555;53.248;10.336;2023-03-04T05:56:06;5.10;99.90
7028;DHT22;3555;53.248;10.336;2023-03-04T05:58:33;5.00;99.90
7028;DHT22;3555;53.248;10.336;2023-03-04T06:01:00;5.00;99.90
7028;DHT22;3555;53.248;10.336;2023-03-04T06:03:27;5.00;99.90
7028;DHT22;3555;53.248;10.336;2023-03-04T06:05:54;4.90;99.90
7028;DHT22;3555;53.248;10.336;2023-03-04T06:08:21;4.90;99.90
7028;DHT22;3555;53.248;10.336;2023-03-04T06:10:51;4.90;99.90
7028;DHT22;3555;53.248;10.336;2023-03-04T06:13:18;4.90;99.90
7028;DHT22;3555;53.248;10.336;2023-03-04T06:15:45;5.00;99.90
7028;DHT22;3555;53.248;10.336;2023-03-04T06:18:13;5.00;99.90
7028;DHT22;3555;53.248;10.336;2023-03-04T06:20:39;5.00;99.90
7028;DHT22;3555;53.248;10.336;2023-03-04T06:23:06;4.90;99.90
7028;DHT22;3555;53.248;10.336;2023-03-04T06:25:33;4.90;99.90
7028;DHT22;3555;53.248;10.336;2023-03-04T06:28:01;4.90;99.90
7028;DHT22;3555;53.248;10.336;2023-03-04T06:30:28;4.90;99.90
7028;DHT22;3555;53.248;10.336;2023-03-04T06:32:55;4.80;99.90
7028;DHT22;3555;53.248;10.336;2023-03-04T06:35:22;4.70;99.90
7028;DHT22;3555;53.248;10.336;2023-03-04T06:37:49;4.70;99.90
7028;DHT22;3555;53.248;10.336;2023-03-04T06:40:16;4.70;99.90
7028;DHT22;3555;53.248;10.336;2023-03-04T06:42:43;4.70;99.90
7028;DHT22;3555;53.248;10.336;2023-03-04T06:45:12;4.80;99.90
7028;DHT22;3555;53.248;10.336;2023-03-04T06:47:39;4.90;99.90
7028;DHT22;3555;53.248;10.336;2023-03-04T06:50:06;4.90;99.90
7028;DHT22;3555;53.248;10.336;2023-03-04T06:52:33;4.90;99.90
7028;DHT22;3555;53.248;10.336;2023-03-04T06:55:00;4.90;99.90
7028;DHT22;3555;53.248;10.336;2023-03-04T06:57:27;4.90;99.90
7028;DHT22;3555;53.248;10.336;2023-03-04T06:59:54;4.90;99.90
7028;DHT22;3555;53.248;10.336;2023-03-04T07:02:22;4.90;99.90
7028;DHT22;3555;53.248;10.336;2023-03-04T07:04:49;5.00;99.90
7028;DHT22;3555;53.248;10.336;2023-03-04T07:07:16;5.00;99.90
7028;DHT22;3555;53.248;10.336;2023-03-04T07:09:43;5.00;99.90
7028;DHT22;3555;53.248;10.336;2023-03-04T07:12:10;4.90;99.90
7028;DHT22;3555;53.248;10.336;2023-03-04T07:14:37;5.00;99.90
7028;DHT22;3555;53.248;10.336;2023-03-04T07:17:03;5.00;99.90
7028;DHT22;3555;53.248;10.336;2023-03-04T07:19:32;5.00;99.90
7028;DHT22;3555;53.248;10.336;2023-03-04T07:21:58;5.10;99.90
7028;DHT22;3555;53.248;10.336;2023-03-04T07:24:26;5.10;99.90
7028;DHT22;3555;53.248;10.336;2023-03-04T07:26:53;5.10;99.90
7028;DHT22;3555;53.248;10.336;2023-03-04T07:29:19;5.10;99.90
7028;DHT22;3555;53.248;10.336;2023-03-04T07:31:46;5.10;99.90
7028;DHT22;3555;53.248;10.336;2023-03-04T07:34:14;5.10;99.90
7028;DHT22;3555;53.248;10.336;2023-03-04T07:36:43;5.10;99.90
7028;DHT22;3555;53.248;10.336;2023-03-04T07:39:11;5.10;99.90
7028;DHT22;3555;53.248;10.336;2023-03-04T07:41:39;5.10;99.90
7028;DHT22;3555;53.248;10.336;2023-03-04T07:44:07;5.20;72.40
7028;DHT22;3555;53.248;10.336;2023-03-04T07:46:34;5.10;1.00
7028;DHT22;3555;53.248;10.336;2023-03-04T07:49:01;5.10;1.00
7028;DHT22;3555;53.248;10.336;2023-03-04T07:51:28;5.10;99.90
7028;DHT22;3555;53.248;10.336;2023-03-04T07:53:58;5.10;1.00
7028;DHT22;3555;53.248;10.336;2023-03-04T07:56:27;5.20;1.00
7028;DHT22;3555;53.248;10.336;2023-03-04T07:58:54;5.30;77.80
7028;DHT22;3555;53.248;10.336;2023-03-04T08:01:23;5.30;1.00
7028;DHT22;3555;53.248;10.336;2023-03-04T08:03:51;5.30;1.00
7028;DHT22;3555;53.248;10.336;2023-03-04T08:06:18;5.40;1.00
7028;DHT22;3555;53.248;10.336;2023-03-04T08:08:46;5.40;99.90
7028;DHT22;3555;53.248;10.336;2023-03-04T08:11:17;5.40;1.00
7028;DHT22;3555;53.248;10.336;2023-03-04T08:13:46;5.50;1.00
7028;DHT22;3555;53.248;10.336;2023-03-04T08:16:14;5.50;99.90
7028;DHT22;3555;53.248;10.336;2023-03-04T08:18:42;5.50;1.00
7028;DHT22;3555;53.248;10.336;2023-03-04T08:21:10;5.50;1.00
7028;DHT22;3555;53.248;10.336;2023-03-04T08:23:37;5.90;99.90
7028;DHT22;3555;53.248;10.336;2023-03-04T08:26:08;5.50;99.90
7028;DHT22;3555;53.248;10.336;2023-03-04T08:28:38;5.50;99.90
7028;DHT22;3555;53.248;10.336;2023-03-04T08:31:05;5.50;1.00
7028;DHT22;3555;53.248;10.336;2023-03-04T08:33:33;5.40;1.00
7028;DHT22;3555;53.248;10.336;2023-03-04T08:36:00;5.30;99.90
7028;DHT22;3555;53.248;10.336;2023-03-04T08:38:26;5.20;1.00
7028;DHT22;3555;53.248;10.336;2023-03-04T08:40:54;5.20;75.70
7028;DHT22;3555;53.248;10.336;2023-03-04T08:43:23;5.20;1.00
7028;DHT22;3555;53.248;10.336;2023-03-04T08:45:53;5.20;1.00
7028;DHT22;3555;53.248;10.336;2023-03-04T08:48:20;5.30;1.00
7028;DHT22;3555;53.248;10.336;2023-03-04T08:50:47;5.20;1.00
7028;DHT22;3555;53.248;10.336;2023-03-04T08:53:16;5.20;1.00
7028;DHT22;3555;53.248;10.336;2023-03-04T08:55:43;5.20;1.00
7028;DHT22;3555;53.248;10.336;2023-03-04T08:58:11;5.10;99.90
7028;DHT22;3555;53.248;10.336;2023-03-04T09:00:40;5.00;99.90
7028;DHT22;3555;53.248;10.336;2023-03-04T09:03:11;5.00;1.00
7028;DHT22;3555;53.248;10.336;2023-03-04T09:05:38;5.10;99.90
7028;DHT22;3555;53.248;10.336;2023-03-04T09:08:05;5.10;1.00
7028;DHT22;3555;53.248;10.336;2023-03-04T09:10:33;5.10;99.90
7028;DHT22;3555;53.248;10.336;2023-03-04T09:13:00;5.10;99.90
7028;DHT22;3555;53.248;10.336;2023-03-04T09:15:27;5.10;1.00
7028;DHT22;3555;53.248;10.336;2023-03-04T09:17:54;5.10;99.90
7028;DHT22;3555;53.248;10.336;2023-03-04T09:20:22;5.20;1.00
7028;DHT22;3555;53.248;10.336;2023-03-04T09:22:49;5.20;1.00
7028;DHT22;3555;53.248;10.336;2023-03-04T09:25:16;5.20;1.00
7028;DHT22;3555;53.248;10.336;2023-03-04T09:27:43;5.20;1.00
7028;DHT22;3555;53.248;10.336;2023-03-04T09:30:11;5.30;1.00
7028;DHT22;3555;53.248;10.336;2023-03-04T09:32:38;5.30;1.00
7028;DHT22;3555;53.248;10.336;2023-03-04T09:35:06;5.40;1.00
7028;DHT22;3555;53.248;10.336;2023-03-04T09:37:36;5.40;1.00
7028;DHT22;3555;53.248;10.336;2023-03-04T09:40:05;5.40;1.00
7028;DHT22;3555;53.248;10.336;2023-03-04T09:42:35;5.30;1.00
7028;DHT22;3555;53.248;10.336;2023-03-04T09:45:05;5.40;1.00
7028;DHT22;3555;53.248;10.336;2023-03-04T09:47:34;5.30;1.00
7028;DHT22;3555;53.248;10.336;2023-03-04T09:50:04;5.30;1.00
7028;DHT22;3555;53.248;10.336;2023-03-04T09:52:43;5.20;1.00
7028;DHT22;3555;53.248;10.336;2023-03-04T09:55:19;5.20;1.00
7028;DHT22;3555;53.248;10.336;2023-03-04T09:57:50;5.10;1.00
7028;DHT22;3555;53.248;10.336;2023-03-04T10:00:20;5.10;1.00
7028;DHT22;3555;53.248;10.336;2023-03-04T10:03:05;5.20;1.00
7028;DHT22;3555;53.248;10.336;2023-03-04T10:05:39;5.30;1.00
7028;DHT22;3555;53.248;10.336;2023-03-04T10:08:20;5.30;1.00
7028;DHT22;3555;53.248;10.336;2023-03-04T10:10:50;5.40;1.00
7028;DHT22;3555;53.248;10.336;2023-03-04T10:13:22;5.40;1.00
7028;DHT22;3555;53.248;10.336;2023-03-04T10:15:50;5.40;1.00
7028;DHT22;3555;53.248;10.336;2023-03-04T10:18:20;5.30;99.90
7028;DHT22;3555;53.248;10.336;2023-03-04T10:20:53;5.30;99.90
7028;DHT22;3555;53.248;10.336;2023-03-04T10:23:27;5.30;99.90
7028;DHT22;3555;53.248;10.336;2023-03-04T10:25:54;5.30;99.90
7028;DHT22;3555;53.248;10.336;2023-03-04T10:28:24;5.40;99.90
7028;DHT22;3555;53.248;10.336;2023-03-04T10:30:57;5.40;99.90
7028;DHT22;3555;53.248;10.336;2023-03-04T10:33:26;5.40;99.90
7028;DHT22;3555;53.248;10.336;2023-03-04T10:36:00;5.50;99.90
7028;DHT22;3555;53.248;10.336;2023-03-04T10:38:30;5.50;37.70
7028;DHT22;3555;53.248;10.336;2023-03-04T10:40:58;5.40;8.80
7028;DHT22;3555;53.248;10.336;2023-03-04T10:43:25;5.40;1.00
7028;DHT22;3555;53.248;10.336;2023-03-04T10:45:55;5.50;1.00
7028;DHT22;3555;53.248;10.336;2023-03-04T10:48:24;5.30;1.00
7028;DHT22;3555;53.248;10.336;2023-03-04T10:50:52;5.40;1.00
7028;DHT22;3555;53.248;10.336;2023-03-04T10:53:29;5.50;20.60
7028;DHT22;3555;53.248;10.336;2023-03-04T10:55:58;5.60;1.00
7028;DHT22;3555;53.248;10.336;2023-03-04T10:58:25;5.60;1.00
7028;DHT22;3555;53.248;10.336;2023-03-04T11:01:03;5.60;1.00
7028;DHT22;3555;53.248;10.336;2023-03-04T11:03:32;5.70;1.00
7028;DHT22;3555;53.248;10.336;2023-03-04T11:06:05;5.80;1.00
7028;DHT22;3555;53.248;10.336;2023-03-04T11:08:34;5.90;1.00
7028;DHT22;3555;53.248;10.336;2023-03-04T11:11:01;5.90;1.00
7028;DHT22;3555;53.248;10.336;2023-03-04T11:13:29;6.00;1.00
7028;DHT22;3555;53.248;10.336;2023-03-04T11:15:58;6.00;1.00
7028;DHT22;3555;53.248;10.336;2023-03-04T11:18:30;5.90;1.00
7028;DHT22;3555;53.248;10.336;2023-03-04T11:21:01;6.00;1.00
7028;DHT22;3555;53.248;10.336;2023-03-04T11:23:35;5.90;1.00
7028;DHT22;3555;53.248;10.336;2023-03-04T11:26:09;6.00;1.00
7028;DHT22;3555;53.248;10.336;2023-03-04T11:28:42;6.00;1.00
7028;DHT22;3555;53.248;10.336;2023-03-04T11:31:14;6.20;1.00
7028;DHT22;3555;53.248;10.336;2023-03-04T11:33:47;6.00;1.00
7028;DHT22;3555;53.248;10.336;2023-03-04T11:36:28;6.00;1.00
7028;DHT22;3555;53.248;10.336;2023-03-04T11:39:01;5.90;1.00
7028;DHT22;3555;53.248;10.336;2023-03-04T11:41:31;5.90;1.00
7028;DHT22;3555;53.248;10.336;2023-03-04T11:44:00;5.90;1.00
7028;DHT22;3555;53.248;10.336;2023-03-04T11:46:57;5.90;1.00
7028;DHT22;3555;53.248;10.336;2023-03-04T11:49:56;5.90;1.00
7028;DHT22;3555;53.248;10.336;2023-03-04T11:52:39;5.90;1.00
7028;DHT22;3555;53.248;10.336;2023-03-04T11:55:24;5.80;99.90
7028;DHT22;3555;53.248;10.336;2023-03-04T11:58:03;5.90;1.00
7028;DHT22;3555;53.248;10.336;2023-03-04T12:00:38;6.00;1.00
7028;DHT22;3555;53.248;10.336;2023-03-04T12:03:21;6.10;99.90
7028;DHT22;3555;53.248;10.336;2023-03-04T12:05:57;6.20;99.90
7028;DHT22;3555;53.248;10.336;2023-03-04T12:08:38;6.30;99.90
7028;DHT22;3555;53.248;10.336;2023-03-04T12:11:15;6.40;99.90
7028;DHT22;3555;53.248;10.336;2023-03-04T12:17:23;6.50;99.90
7028;DHT22;3555;53.248;10.336;2023-03-04T12:20:15;6.50;99.90
7028;DHT22;3555;53.248;10.336;2023-03-04T12:22:45;6.40;99.90
7028;DHT22;3555;53.248;10.336;2023-03-04T12:25:29;6.40;99.90
7028;DHT22;3555;53.248;10.336;2023-03-04T12:28:09;6.30;99.90
7028;DHT22;3555;53.248;10.336;2023-03-04T12:30:48;6.30;99.90
7028;DHT22;3555;53.248;10.336;2023-03-04T12:33:27;6.40;99.90
7028;DHT22;3555;53.248;10.336;2023-03-04T12:36:04;6.40;99.90
7028;DHT22;3555;53.248;10.336;2023-03-04T12:38:58;6.40;99.90
7028;DHT22;3555;53.248;10.336;2023-03-04T12:41:35;6.40;99.90
7028;DHT22;3555;53.248;10.336;2023-03-04T12:44:13;6.40;99.90
7028;DHT22;3555;53.248;10.336;2023-03-04T12:46:54;6.40;99.90
7028;DHT22;3555;53.248;10.336;2023-03-04T12:49:37;6.40;99.90
7028;DHT22;3555;53.248;10.336;2023-03-04T12:52:14;6.30;99.90
7028;DHT22;3555;53.248;10.336;2023-03-04T12:54:44;6.40;1.00
7028;DHT22;3555;53.248;10.336;2023-03-04T12:57:13;6.30;99.90
7028;DHT22;3555;53.248;10.336;2023-03-04T12:59:46;6.40;1.00
7028;DHT22;3555;53.248;10.336;2023-03-04T13:02:32;6.40;1.00
7028;DHT22;3555;53.248;10.336;2023-03-04T13:05:07;6.40;1.00
7028;DHT22;3555;53.248;10.336;2023-03-04T13:07:48;6.40;1.00
7028;DHT22;3555;53.248;10.336;2023-03-04T13:10:18;6.50;1.00
7028;DHT22;3555;53.248;10.336;2023-03-04T13:12:47;6.50;1.00
7028;DHT22;3555;53.248;10.336;2023-03-04T13:15:33;6.50;1.00
7028;DHT22;3555;53.248;10.336;2023-03-04T13:18:03;6.70;1.00
7028;DHT22;3555;53.248;10.336;2023-03-04T13:20:39;6.70;1.00
7028;DHT22;3555;53.248;10.336;2023-03-04T13:23:23;6.70;1.00
7028;DHT22;3555;53.248;10.336;2023-03-04T13:26:30;6.80;1.00
7028;DHT22;3555;53.248;10.336;2023-03-04T13:29:29;6.70;1.00
7028;DHT22;3555;53.248;10.336;2023-03-04T13:32:00;6.70;1.00
7028;DHT22;3555;53.248;10.336;2023-03-04T13:34:49;6.60;99.90
7028;DHT22;3555;53.248;10.336;2023-03-04T13:37:34;6.70;1.00
7028;DHT22;3555;53.248;10.336;2023-03-04T13:40:28;6.70;1.00
7028;DHT22;3555;53.248;10.336;2023-03-04T13:43:23;6.80;1.00
7028;DHT22;3555;53.248;10.336;2023-03-04T13:45:50;6.70;1.00
7028;DHT22;3555;53.248;10.336;2023-03-04T13:48:27;6.70;1.00
7028;DHT22;3555;53.248;10.336;2023-03-04T13:50:56;6.60;1.00
7028;DHT22;3555;53.248;10.336;2023-03-04T13:53:41;6.50;99.90
7028;DHT22;3555;53.248;10.336;2023-03-04T13:56:24;6.40;1.00
7028;DHT22;3555;53.248;10.336;2023-03-04T14:02:00;6.40;1.00
7028;DHT22;3555;53.248;10.336;2023-03-04T14:04:31;6.40;99.90
7028;DHT22;3555;53.248;10.336;2023-03-04T14:07:00;6.40;99.90
7028;DHT22;3555;53.248;10.336;2023-03-04T14:09:29;6.40;99.90
7028;DHT22;3555;53.248;10.336;2023-03-04T14:11:58;6.40;99.90
7028;DHT22;3555;53.248;10.336;2023-03-04T14:14:30;6.40;99.90
7028;DHT22;3555;53.248;10.336;2023-03-04T14:16:59;6.50;99.90
7028;DHT22;3555;53.248;10.336;2023-03-04T14:19:29;6.40;99.90
7028;DHT22;3555;53.248;10.336;2023-03-04T14:21:58;6.40;99.90
7028;DHT22;3555;53.248;10.336;2023-03-04T14:24:26;6.40;99.90
7028;DHT22;3555;53.248;10.336;2023-03-04T14:27:08;6.40;99.90
7028;DHT22;3555;53.248;10.336;2023-03-04T14:29:37;6.20;99.90
7028;DHT22;3555;53.248;10.336;2023-03-04T14:32:04;6.40;99.90
7028;DHT22;3555;53.248;10.336;2023-03-04T14:34:34;6.40;99.90
7028;DHT22;3555;53.248;10.336;2023-03-04T14:37:02;6.40;99.90
7028;DHT22;3555;53.248;10.336;2023-03-04T14:39:31;6.40;99.90
7028;DHT22;3555;53.248;10.336;2023-03-04T14:42:06;6.30;99.90
7028;DHT22;3555;53.248;10.336;2023-03-04T14:44:37;6.30;99.90
7028;DHT22;3555;53.248;10.336;2023-03-04T14:47:09;6.20;99.90
7028;DHT22;3555;53.248;10.336;2023-03-04T14:49:38;6.20;99.90
7028;DHT22;3555;53.248;10.336;2023-03-04T14:52:05;6.20;99.90
7028;DHT22;3555;53.248;10.336;2023-03-04T14:54:34;6.10;99.90
7028;DHT22;3555;53.248;10.336;2023-03-04T14:57:21;6.10;99.90
7028;DHT22;3555;53.248;10.336;2023-03-04T14:59:49;6.20;99.90
7028;DHT22;3555;53.248;10.336;2023-03-04T15:02:25;6.30;99.90
7028;DHT22;3555;53.248;10.336;2023-03-04T15:04:57;6.30;99.90
7028;DHT22;3555;53.248;10.336;2023-03-04T15:07:30;6.30;99.90
7028;DHT22;3555;53.248;10.336;2023-03-04T15:09:57;6.20;99.90
7028;DHT22;3555;53.248;10.336;2023-03-04T15:12:27;6.60;99.90
7028;DHT22;3555;53.248;10.336;2023-03-04T15:14:56;6.20;99.90
7028;DHT22;3555;53.248;10.336;2023-03-04T15:17:26;6.20;99.90
7028;DHT22;3555;53.248;10.336;2023-03-04T15:19:59;6.20;99.90
7028;DHT22;3555;53.248;10.336;2023-03-04T15:22:27;6.10;99.90
7028;DHT22;3555;53.248;10.336;2023-03-04T15:24:54;6.20;99.90
7028;DHT22;3555;53.248;10.336;2023-03-04T15:27:22;6.20;99.90
7028;DHT22;3555;53.248;10.336;2023-03-04T15:29:50;6.20;99.90
7028;DHT22;3555;53.248;10.336;2023-03-04T15:32:21;6.00;99.90
7028;DHT22;3555;53.248;10.336;2023-03-04T15:34:47;5.90;99.90
7028;DHT22;3555;53.248;10.336;2023-03-04T15:37:19;5.90;99.90
7028;DHT22;3555;53.248;10.336;2023-03-04T15:39:46;5.90;99.90
7028;DHT22;3555;53.248;10.336;2023-03-04T15:42:13;5.90;99.90
7028;DHT22;3555;53.248;10.336;2023-03-04T15:44:40;5.90;99.90
7028;DHT22;3555;53.248;10.336;2023-03-04T15:47:08;5.80;99.90
7028;DHT22;3555;53.248;10.336;2023-03-04T15:49:37;5.90;99.90
7028;DHT22;3555;53.248;10.336;2023-03-04T15:52:05;5.90;99.90
7028;DHT22;3555;53.248;10.336;2023-03-04T15:54:34;5.90;99.90
7028;DHT22;3555;53.248;10.336;2023-03-04T15:57:03;5.80;99.90
7028;DHT22;3555;53.248;10.336;2023-03-04T15:59:31;5.60;99.90
7028;DHT22;3555;53.248;10.336;2023-03-04T16:01:58;5.50;99.90
7028;DHT22;3555;53.248;10.336;2023-03-04T16:04:25;5.50;99.90
7028;DHT22;3555;53.248;10.336;2023-03-04T16:06:51;5.50;99.90
7028;DHT22;3555;53.248;10.336;2023-03-04T16:09:23;5.50;99.90
7028;DHT22;3555;53.248;10.336;2023-03-04T16:11:52;5.60;99.90
7028;DHT22;3555;53.248;10.336;2023-03-04T16:14:20;5.50;99.90
7028;DHT22;3555;53.248;10.336;2023-03-04T16:16:47;5.40;99.90
7028;DHT22;3555;53.248;10.336;2023-03-04T16:19:15;5.40;99.90
7028;DHT22;3555;53.248;10.336;2023-03-04T16:21:41;5.40;99.90
7028;DHT22;3555;53.248;10.336;2023-03-04T16:24:14;5.40;99.90
7028;DHT22;3555;53.248;10.336;2023-03-04T16:26:42;5.30;99.90
7028;DHT22;3555;53.248;10.336;2023-03-04T16:29:11;5.30;99.90
7028;DHT22;3555;53.248;10.336;2023-03-04T16:31:37;5.20;99.90
7028;DHT22;3555;53.248;10.336;2023-03-04T16:34:04;5.10;99.90